Time;durP1;ratioP1;P1;durP2;ratioP2;P2;SDS_P1;SDS_P2;PMS_P1;PMS_P2;Temp;Humidity;BMP_temperature;BMP_pressure;BME280_temperature;BME280_humidity;BME280_pressure;Samples;Min_cycle;Max_cycle;Signal;HPM_P1;HPM_P2
2023/10/22 00:00:15;;;;;;;13.05;5.10;;;;;;;;;;5091837;28;20064;-72
2023/10/22 00:02:41;;;;;;;12.10;4.40;;;;;;;;;;5091818;28;20032;-74
2023/10/22 00:05:07;;;;;;;15.07;4.40;;;;;;;;;;5090639;28;20052;-72
2023/10/22 00:07:34;;;;;;;10.38;3.83;;;;;;;;;;5091791;28;20386;-72
2023/10/22 00:10:00;;;;;;;10.27;4.13;;;;;;;;;;5092005;28;20024;-73
2023/10/22 00:12:26;;;;;;;11.65;4.03;;;;;;;;;;5091751;28;20024;-72
2023/10/22 00:14:52;;;;;;;9.60;3.67;;;;;;;;;;5091862;28;20024;-73
2023/10/22 00:17:18;;;;;;;9.35;4.35;;;;;;;;;;5091662;28;20089;-73
2023/10/22 00:19:44;;;;;;;14.70;4.05;;;;;;;;;;5090679;28;20035;-73
2023/10/22 00:22:12;;;;;;;10.75;4.32;;;;;;;;;;5091638;28;20096;-74
2023/10/22 00:24:38;;;;;;;13.02;3.75;;;;;;;;;;5091477;28;20023;-74
2023/10/22 00:27:04;;;;;;;11.93;3.78;;;;;;;;;;5093830;28;20024;-73
2023/10/22 00:29:30;;;;;;;11.35;3.63;;;;;;;;;;5096047;28;20099;-73
2023/10/22 00:31:56;;;;;;;11.57;3.30;;;;;;;;;;5094531;28;20461;-73
2023/10/22 00:34:22;;;;;;;11.98;3.67;;;;;;;;;;5095328;28;20103;-74
2023/10/22 00:36:48;;;;;;;13.75;3.50;;;;;;;;;;5095305;28;20075;-73
2023/10/22 00:39:14;;;;;;;11.95;3.10;;;;;;;;;;5095304;28;20024;-73
2023/10/22 00:41:40;;;;;;;14.23;3.40;;;;;;;;;;5094921;28;20035;-74
2023/10/22 00:44:06;;;;;;;12.18;3.65;;;;;;;;;;5093645;28;20076;-74
2023/10/22 00:46:32;;;;;;;16.15;3.95;;;;;;;;;;5095089;28;20095;-74
2023/10/22 00:48:58;;;;;;;10.85;3.90;;;;;;;;;;5095145;28;20038;-74
2023/10/22 00:51:25;;;;;;;14.98;3.97;;;;;;;;;;5094830;28;20488;-72
2023/10/22 00:53:52;;;;;;;9.65;3.45;;;;;;;;;;5094952;28;20073;-73
2023/10/22 00:56:20;;;;;;;9.27;3.80;;;;;;;;;;5094966;28;20487;-71
2023/10/22 00:58:46;;;;;;;14.10;4.15;;;;;;;;;;5094850;28;20024;-73
2023/10/22 01:01:13;;;;;;;16.33;4.05;;;;;;;;;;5094726;28;20472;-73
2023/10/22 01:03:39;;;;;;;12.40;3.70;;;;;;;;;;5094815;28;20482;-73
2023/10/22 01:06:06;;;;;;;9.32;3.30;;;;;;;;;;5094969;28;20386;-73
2023/10/22 01:08:36;;;;;;;10.20;3.42;;;;;;;;;;5094861;28;20055;-73
2023/10/22 01:11:12;;;;;;;13.23;3.55;;;;;;;;;;5094442;28;20020;-73
2023/10/22 01:13:38;;;;;;;13.90;3.75;;;;;;;;;;5095489;28;20044;-73
2023/10/22 01:16:06;;;;;;;11.63;3.08;;;;;;;;;;5094092;28;20031;-71
2023/10/22 01:18:33;;;;;;;13.88;3.72;;;;;;;;;;5094592;28;20036;-72
2023/10/22 01:20:59;;;;;;;12.05;3.72;;;;;;;;;;5093130;28;20024;-71
2023/10/22 01:23:25;;;;;;;10.05;3.17;;;;;;;;;;5094399;28;20023;-73
2023/10/22 01:25:51;;;;;;;12.35;3.80;;;;;;;;;;5094333;28;20028;-73
2023/10/22 01:28:17;;;;;;;9.07;2.95;;;;;;;;;;5094271;28;20016;-74
2023/10/22 01:30:43;;;;;;;12.40;2.90;;;;;;;;;;5094075;28;20032;-74
2023/10/22 01:33:09;;;;;;;8.57;3.17;;;;;;;;;;5094227;28;20482;-74
2023/10/22 01:35:36;;;;;;;21.50;4.40;;;;;;;;;;5094299;28;20028;-73
2023/10/22 01:38:02;;;;;;;6.35;3.30;;;;;;;;;;5094067;28;20024;-72
2023/10/22 01:40:27;;;;;;;6.78;2.85;;;;;;;;;;5094041;28;20063;-73
2023/10/22 01:42:53;;;;;;;13.70;3.15;;;;;;;;;;5093885;28;20059;-72
2023/10/22 01:45:20;;;;;;;18.77;3.80;;;;;;;;;;5096237;28;20028;-73
2023/10/22 01:47:46;;;;;;;14.55;3.45;;;;;;;;;;5096780;28;20020;-73
2023/10/22 01:50:13;;;;;;;14.65;3.63;;;;;;;;;;5093703;28;20028;-72
2023/10/22 01:52:39;;;;;;;13.02;3.65;;;;;;;;;;5092591;28;20440;-73
2023/10/22 01:55:05;;;;;;;7.50;2.83;;;;;;;;;;5093699;28;20051;-73
2023/10/22 01:57:33;;;;;;;8.15;3.53;;;;;;;;;;5094183;28;20028;-73
2023/10/22 01:59:59;;;;;;;12.30;3.40;;;;;;;;;;5094486;28;20028;-74
2023/10/22 02:02:25;;;;;;;7.78;3.30;;;;;;;;;;5094806;28;20412;-73
2023/10/22 02:04:51;;;;;;;15.50;3.45;;;;;;;;;;5094333;28;20024;-73
2023/10/22 02:07:17;;;;;;;12.32;3.40;;;;;;;;;;5093572;28;20025;-74
2023/10/22 02:09:43;;;;;;;9.88;3.38;;;;;;;;;;5093373;28;20095;-72
2023/10/22 02:12:09;;;;;;;7.15;3.22;;;;;;;;;;5093456;28;20102;-74
2023/10/22 02:14:35;;;;;;;17.80;3.30;;;;;;;;;;5093719;28;20035;-74
2023/10/22 02:17:01;;;;;;;12.40;3.60;;;;;;;;;;5093486;28;20024;-73
2023/10/22 02:19:27;;;;;;;14.48;3.08;;;;;;;;;;5093397;28;20032;-73
2023/10/22 02:21:53;;;;;;;8.75;3.25;;;;;;;;;;5092921;28;20028;-72
2023/10/22 02:24:19;;;;;;;15.88;3.83;;;;;;;;;;5093581;28;20093;-71
2023/10/22 02:26:46;;;;;;;11.43;3.53;;;;;;;;;;5093269;28;20016;-73
2023/10/22 02:29:13;;;;;;;6.57;3.20;;;;;;;;;;5093236;28;20024;-73
2023/10/22 02:31:42;;;;;;;11.07;3.47;;;;;;;;;;5093313;28;20016;-73
2023/10/22 02:34:09;;;;;;;14.93;2.92;;;;;;;;;;5093816;28;20115;-73
2023/10/22 02:36:35;;;;;;;25.65;3.65;;;;;;;;;;5094536;28;20036;-73
2023/10/22 02:39:04;;;;;;;9.13;3.05;;;;;;;;;;5093618;28;20027;-74
2023/10/22 02:41:30;;;;;;;8.07;3.00;;;;;;;;;;5092773;28;20026;-74
2023/10/22 02:43:57;;;;;;;10.18;3.00;;;;;;;;;;5092799;28;20414;-74
2023/10/22 02:46:23;;;;;;;10.20;3.20;;;;;;;;;;5093009;28;20043;-73
2023/10/22 02:48:49;;;;;;;12.75;3.00;;;;;;;;;;5092225;28;20024;-74
2023/10/22 02:51:15;;;;;;;10.38;2.90;;;;;;;;;;5092894;28;20482;-73
2023/10/22 02:53:41;;;;;;;10.18;2.90;;;;;;;;;;5092723;28;20019;-73
2023/10/22 02:56:09;;;;;;;7.65;2.83;;;;;;;;;;5091505;28;20024;-73
2023/10/22 02:58:38;;;;;;;12.48;3.38;;;;;;;;;;5092747;28;20022;-74
2023/10/22 03:01:10;;;;;;;14.27;3.30;;;;;;;;;;5092495;28;20019;-74
2023/10/22 03:03:40;;;;;;;9.23;2.70;;;;;;;;;;5092482;28;20028;-72
2023/10/22 03:06:10;;;;;;;7.82;2.88;;;;;;;;;;5092637;28;20551;-73
2023/10/22 03:08:36;;;;;;;11.27;2.80;;;;;;;;;;5092625;28;20479;-72
2023/10/22 03:11:03;;;;;;;13.00;2.65;;;;;;;;;;5092136;28;20026;-73
2023/10/22 03:13:29;;;;;;;13.65;3.38;;;;;;;;;;5092328;28;20070;-71
2023/10/22 03:15:55;;;;;;;13.25;3.10;;;;;;;;;;5091103;28;20498;-72
2023/10/22 03:18:22;;;;;;;13.93;3.50;;;;;;;;;;5093963;28;20445;-72
2023/10/22 03:20:50;;;;;;;10.57;3.10;;;;;;;;;;5093134;28;20028;-73
2023/10/22 03:23:16;;;;;;;7.05;2.90;;;;;;;;;;5093642;28;20055;-73
2023/10/22 03:25:43;;;;;;;18.80;3.60;;;;;;;;;;5093482;28;20063;-73
2023/10/22 03:28:09;;;;;;;8.88;2.85;;;;;;;;;;5092893;28;20031;-72
2023/10/22 03:30:38;;;;;;;11.70;3.20;;;;;;;;;;5091954;28;20483;-73
2023/10/22 03:33:05;;;;;;;13.65;5.25;;;;;;;;;;5091955;28;20046;-73
2023/10/22 03:35:31;;;;;;;11.10;3.35;;;;;;;;;;5092183;28;20031;-73
2023/10/22 03:37:58;;;;;;;14.60;3.85;;;;;;;;;;5092035;28;20062;-74
2023/10/22 03:40:24;;;;;;;14.82;3.30;;;;;;;;;;5091888;28;20142;-73
2023/10/22 03:42:50;;;;;;;13.25;3.00;;;;;;;;;;5091835;28;20032;-73
2023/10/22 03:45:16;;;;;;;10.05;3.00;;;;;;;;;;5091889;28;20023;-74
2023/10/22 03:47:42;;;;;;;18.40;3.20;;;;;;;;;;5091791;28;20464;-72
2023/10/22 03:50:08;;;;;;;15.32;2.80;;;;;;;;;;5091633;28;20031;-73
2023/10/22 03:52:34;;;;;;;13.52;3.80;;;;;;;;;;5091816;28;20077;-73
2023/10/22 03:55:00;;;;;;;11.52;3.35;;;;;;;;;;5091649;28;20081;-73
2023/10/22 03:57:26;;;;;;;15.55;3.47;;;;;;;;;;5091659;28;20336;-73
2023/10/22 03:59:52;;;;;;;10.85;3.28;;;;;;;;;;5091756;28;20028;-74
2023/10/22 04:02:18;;;;;;;14.10;3.92;;;;;;;;;;5095853;28;20024;-74
2023/10/22 04:04:44;;;;;;;13.07;3.60;;;;;;;;;;5095754;28;20150;-74
2023/10/22 04:07:11;;;;;;;14.63;3.25;;;;;;;;;;5095867;28;20070;-73
2023/10/22 04:09:37;;;;;;;8.35;3.05;;;;;;;;;;5095564;28;20103;-72
2023/10/22 04:12:03;;;;;;;10.38;3.05;;;;;;;;;;5095727;28;20099;-72
2023/10/22 04:14:29;;;;;;;10.63;3.10;;;;;;;;;;5095750;28;20494;-72
2023/10/22 04:16:55;;;;;;;11.38;3.50;;;;;;;;;;5095711;28;20020;-72
2023/10/22 04:19:21;;;;;;;10.85;3.30;;;;;;;;;;5095747;28;20364;-72
2023/10/22 04:21:47;;;;;;;16.45;3.20;;;;;;;;;;5095355;28;20103;-73
2023/10/22 04:24:13;;;;;;;14.70;3.40;;;;;;;;;;5095383;28;20024;-73
2023/10/22 04:26:39;;;;;;;9.23;3.25;;;;;;;;;;5095552;28;20025;-73
2023/10/22 04:29:06;;;;;;;12.95;4.03;;;;;;;;;;5095460;28;20471;-73
2023/10/22 04:31:32;;;;;;;8.73;2.72;;;;;;;;;;5096838;28;20467;-73
2023/10/22 04:33:58;;;;;;;13.77;3.10;;;;;;;;;;5096167;28;20155;-73
2023/10/22 04:36:24;;;;;;;11.57;2.80;;;;;;;;;;5097212;28;20107;-74
2023/10/22 04:38:50;;;;;;;13.02;3.47;;;;;;;;;;5095422;28;20020;-72
2023/10/22 04:41:17;;;;;;;8.85;3.35;;;;;;;;;;5095256;28;20077;-73
2023/10/22 04:43:43;;;;;;;9.10;3.30;;;;;;;;;;5094947;28;20040;-72
2023/10/22 04:46:09;;;;;;;9.20;3.10;;;;;;;;;;5093890;28;20048;-73
2023/10/22 04:48:35;;;;;;;8.63;3.20;;;;;;;;;;5095383;28;20024;-71
2023/10/22 04:51:06;;;;;;;10.38;3.88;;;;;;;;;;5095091;28;20416;-75
2023/10/22 04:53:32;;;;;;;12.70;3.38;;;;;;;;;;5095119;28;20044;-72
2023/10/22 04:55:59;;;;;;;11.95;3.30;;;;;;;;;;5095175;28;20028;-72
2023/10/22 04:58:27;;;;;;;14.00;3.20;;;;;;;;;;5096263;28;20026;-73
2023/10/22 05:00:54;;;;;;;9.15;3.10;;;;;;;;;;5094791;28;20028;-73
2023/10/22 05:03:20;;;;;;;12.30;3.15;;;;;;;;;;5095089;28;20035;-72
2023/10/22 05:05:46;;;;;;;10.75;2.97;;;;;;;;;;5094859;28;20032;-72
2023/10/22 05:08:12;;;;;;;14.77;3.15;;;;;;;;;;5094719;28;20038;-73
2023/10/22 05:10:41;;;;;;;11.70;3.42;;;;;;;;;;5094558;28;20020;-73
2023/10/22 05:13:08;;;;;;;11.43;3.45;;;;;;;;;;5093853;28;20073;-73
2023/10/22 05:15:34;;;;;;;10.07;3.13;;;;;;;;;;5094745;28;20023;-74
2023/10/22 05:18:02;;;;;;;9.48;3.63;;;;;;;;;;5094760;28;20057;-74
2023/10/22 05:20:28;;;;;;;14.02;3.25;;;;;;;;;;5094859;28;20028;-73
2023/10/22 05:22:54;;;;;;;15.57;3.35;;;;;;;;;;5094504;28;20103;-73
2023/10/22 05:25:21;;;;;;;14.98;4.07;;;;;;;;;;5094349;28;20535;-73
2023/10/22 05:27:47;;;;;;;14.65;3.22;;;;;;;;;;5094393;28;20076;-72
2023/10/22 05:30:14;;;;;;;13.50;3.30;;;;;;;;;;5094250;28;20042;-73
2023/10/22 05:32:40;;;;;;;17.80;3.65;;;;;;;;;;5094337;28;20031;-73
2023/10/22 05:35:06;;;;;;;13.82;3.60;;;;;;;;;;5094439;28;20031;-73
2023/10/22 05:37:32;;;;;;;14.27;3.20;;;;;;;;;;5094184;28;20020;-73
2023/10/22 05:39:58;;;;;;;10.80;3.50;;;;;;;;;;5092578;28;20034;-74
2023/10/22 05:42:24;;;;;;;14.52;4.43;;;;;;;;;;5093943;28;20059;-74
2023/10/22 05:44:51;;;;;;;13.20;3.42;;;;;;;;;;5093905;28;20081;-74
2023/10/22 05:47:16;;;;;;;8.73;3.25;;;;;;;;;;5094109;28;20510;-73
2023/10/22 05:49:43;;;;;;;20.80;3.30;;;;;;;;;;5093928;28;20055;-74
2023/10/22 05:52:09;;;;;;;8.18;3.03;;;;;;;;;;5093976;28;20027;-74
2023/10/22 05:54:36;;;;;;;15.07;3.38;;;;;;;;;;5094041;28;20440;-75
2023/10/22 05:57:02;;;;;;;14.30;3.28;;;;;;;;;;5093963;28;20032;-74
2023/10/22 05:59:29;;;;;;;7.57;3.10;;;;;;;;;;5094288;28;20032;-73
2023/10/22 06:01:54;;;;;;;9.27;3.30;;;;;;;;;;5093447;28;20028;-73
2023/10/22 06:04:20;;;;;;;11.80;3.08;;;;;;;;;;5094949;28;20360;-73
2023/10/22 06:06:46;;;;;;;11.75;3.60;;;;;;;;;;5094745;28;20031;-73
2023/10/22 06:09:13;;;;;;;13.77;3.28;;;;;;;;;;5093712;28;20016;-73
2023/10/22 06:11:39;;;;;;;8.90;2.80;;;;;;;;;;5093498;28;20032;-73
2023/10/22 06:14:06;;;;;;;15.02;3.30;;;;;;;;;;5093731;28;20028;-74
2023/10/22 06:16:32;;;;;;;9.65;2.80;;;;;;;;;;5093681;28;20028;-72
2023/10/22 06:18:58;;;;;;;11.43;3.17;;;;;;;;;;5094354;28;20111;-72
2023/10/22 06:21:24;;;;;;;16.85;2.95;;;;;;;;;;5094663;28;20039;-72
2023/10/22 06:23:51;;;;;;;15.00;2.92;;;;;;;;;;5094950;28;20024;-73
2023/10/22 06:26:17;;;;;;;9.18;2.83;;;;;;;;;;5076635;28;20016;-72
2023/10/22 06:28:43;;;;;;;13.20;2.90;;;;;;;;;;5093208;28;20016;-73
2023/10/22 06:31:10;;;;;;;13.75;2.97;;;;;;;;;;5092942;28;20091;-73
2023/10/22 06:33:37;;;;;;;27.38;4.00;;;;;;;;;;5093116;28;20443;-73
2023/10/22 06:36:22;;;;;;;9.30;3.08;;;;;;;;;;5093060;28;20387;-74
2023/10/22 06:38:48;;;;;;;11.57;2.65;;;;;;;;;;5093007;28;20487;-74
2023/10/22 06:41:25;;;;;;;9.40;2.80;;;;;;;;;;5092631;28;20107;-72
2023/10/22 06:43:51;;;;;;;11.85;3.03;;;;;;;;;;5092934;28;20032;-72
2023/10/22 06:46:18;;;;;;;7.25;2.50;;;;;;;;;;5092745;28;20024;-73
2023/10/22 06:48:44;;;;;;;8.60;2.55;;;;;;;;;;5092706;28;20055;-74
2023/10/22 06:51:10;;;;;;;11.70;2.78;;;;;;;;;;5092401;28;20020;-72
2023/10/22 06:53:37;;;;;;;11.70;2.97;;;;;;;;;;5092712;28;20045;-73
2023/10/22 06:56:04;;;;;;;11.65;2.80;;;;;;;;;;5092616;28;20020;-73
2023/10/22 06:58:30;;;;;;;10.50;2.20;;;;;;;;;;5092501;28;20024;-72
2023/10/22 07:01:05;;;;;;;10.32;2.65;;;;;;;;;;5095294;28;20035;-75
2023/10/22 07:03:31;;;;;;;7.00;2.35;;;;;;;;;;5094422;28;20020;-73
2023/10/22 07:05:58;;;;;;;9.60;2.53;;;;;;;;;;5092681;28;20034;-73
2023/10/22 07:08:24;;;;;;;13.15;2.75;;;;;;;;;;5092292;28;20170;-74
2023/10/22 07:10:50;;;;;;;9.45;2.58;;;;;;;;;;5091020;28;20028;-74
2023/10/22 07:13:18;;;;;;;12.45;2.83;;;;;;;;;;5092393;28;20470;-72
2023/10/22 07:15:44;;;;;;;12.05;2.63;;;;;;;;;;5092699;28;20024;-73
2023/10/22 07:18:10;;;;;;;12.00;3.15;;;;;;;;;;5093941;28;20024;-73
2023/10/22 07:20:36;;;;;;;14.40;3.38;;;;;;;;;;5093644;28;20394;-73
2023/10/22 07:23:04;;;;;;;9.70;2.65;;;;;;;;;;5092763;28;20099;-73
2023/10/22 07:25:30;;;;;;;10.82;2.20;;;;;;;;;;5092500;28;20020;-74
2023/10/22 07:27:56;;;;;;;11.40;2.58;;;;;;;;;;5093986;28;20036;-75
2023/10/22 07:30:22;;;;;;;7.15;2.08;;;;;;;;;;5093141;28;20024;-73
2023/10/22 07:32:50;;;;;;;10.73;2.72;;;;;;;;;;5092480;28;20039;-73
2023/10/22 07:35:16;;;;;;;8.93;2.40;;;;;;;;;;5091207;28;20069;-74
2023/10/22 07:37:44;;;;;;;8.57;2.38;;;;;;;;;;5092983;28;20024;-73
2023/10/22 07:40:10;;;;;;;10.27;2.42;;;;;;;;;;5091700;28;20517;-74
2023/10/22 07:42:37;;;;;;;14.35;2.85;;;;;;;;;;5093181;28;20032;-73
2023/10/22 07:45:03;;;;;;;9.45;2.40;;;;;;;;;;5096031;28;20032;-72
2023/10/22 07:47:32;;;;;;;6.45;2.05;;;;;;;;;;5090966;28;20550;-73
2023/10/22 07:49:58;;;;;;;10.10;2.78;;;;;;;;;;5091576;28;20024;-74
2023/10/22 07:52:24;;;;;;;10.02;2.60;;;;;;;;;;5091792;28;20360;-73
2023/10/22 07:54:52;;;;;;;7.38;2.30;;;;;;;;;;5090145;28;20031;-73
2023/10/22 07:57:18;;;;;;;10.52;2.40;;;;;;;;;;5091937;28;20099;-74
2023/10/22 07:59:44;;;;;;;5.82;2.10;;;;;;;;;;5091501;28;20054;-72
2023/10/22 08:02:10;;;;;;;12.38;2.72;;;;;;;;;;5091446;28;20020;-72
2023/10/22 08:04:37;;;;;;;7.90;2.22;;;;;;;;;;5091387;28;20387;-73
2023/10/22 08:07:03;;;;;;;11.10;2.58;;;;;;;;;;5091470;28;20016;-73
2023/10/22 08:09:30;;;;;;;9.55;2.45;;;;;;;;;;5091586;28;20027;-73
2023/10/22 08:11:55;;;;;;;12.00;2.72;;;;;;;;;;5091006;28;20021;-73
2023/10/22 08:14:22;;;;;;;10.95;2.05;;;;;;;;;;5091639;28;20039;-74
2023/10/22 08:16:48;;;;;;;8.50;2.47;;;;;;;;;;5090930;28;20028;-75
2023/10/22 08:19:14;;;;;;;8.65;2.47;;;;;;;;;;5093435;28;20024;-72
2023/10/22 08:21:40;;;;;;;10.25;2.70;;;;;;;;;;5092697;28;20036;-73
2023/10/22 08:24:06;;;;;;;18.90;3.03;;;;;;;;;;5093575;28;20115;-73
2023/10/22 08:26:33;;;;;;;12.43;3.38;;;;;;;;;;5092593;28;20020;-73
2023/10/22 08:28:59;;;;;;;15.02;2.83;;;;;;;;;;5092252;28;20083;-73
2023/10/22 08:31:25;;;;;;;7.05;2.15;;;;;;;;;;5089791;28;20059;-73
2023/10/22 08:33:51;;;;;;;8.55;2.58;;;;;;;;;;5091095;28;20024;-72
2023/10/22 08:36:17;;;;;;;8.48;2.10;;;;;;;;;;5091448;28;20533;-72
2023/10/22 08:38:43;;;;;;;11.13;2.85;;;;;;;;;;5091794;28;20028;-73
2023/10/22 08:41:20;;;;;;;10.15;2.58;;;;;;;;;;5091065;28;20116;-74
2023/10/22 08:43:46;;;;;;;9.93;2.45;;;;;;;;;;5091129;28;20024;-73
2023/10/22 08:46:12;;;;;;;13.32;2.30;;;;;;;;;;5091352;28;20020;-71
2023/10/22 08:48:40;;;;;;;12.68;2.80;;;;;;;;;;5094108;28;20028;-72
2023/10/22 08:51:07;;;;;;;9.85;2.20;;;;;;;;;;5094530;28;20016;-72
2023/10/22 08:53:33;;;;;;;7.82;2.08;;;;;;;;;;5094823;28;20035;-73
2023/10/22 08:56:00;;;;;;;5.80;2.10;;;;;;;;;;5097684;28;20047;-74
2023/10/22 08:58:49;;;;;;;7.47;2.45;;;;;;;;;;5099192;28;20024;-76
2023/10/22 09:01:17;;;;;;;13.18;2.47;;;;;;;;;;5099168;28;20032;-73
2023/10/22 09:03:43;;;;;;;9.65;2.55;;;;;;;;;;5094529;28;20220;-74
2023/10/22 09:06:09;;;;;;;12.38;2.20;;;;;;;;;;5094716;28;20032;-74
2023/10/22 09:08:42;;;;;;;12.95;3.10;;;;;;;;;;5094690;28;20020;-73
2023/10/22 09:11:18;;;;;;;6.75;1.98;;;;;;;;;;5094277;28;20020;-74
2023/10/22 09:13:44;;;;;;;11.30;2.20;;;;;;;;;;5094204;28;20115;-72
2023/10/22 09:16:11;;;;;;;11.23;1.80;;;;;;;;;;5094039;28;20443;-73
2023/10/22 09:18:44;;;;;;;7.28;1.67;;;;;;;;;;5094066;28;20408;-73
2023/10/22 09:21:10;;;;;;;11.13;1.95;;;;;;;;;;5094067;28;20024;-73
2023/10/22 09:23:36;;;;;;;7.88;1.70;;;;;;;;;;5094305;28;20044;-73
2023/10/22 09:26:02;;;;;;;9.68;1.50;;;;;;;;;;5094078;28;20060;-73
2023/10/22 09:28:29;;;;;;;3.88;1.42;;;;;;;;;;5094421;28;20024;-72
2023/10/22 09:30:56;;;;;;;10.32;2.00;;;;;;;;;;5093757;28;20047;-73
2023/10/22 09:33:31;;;;;;;6.55;1.45;;;;;;;;;;5094779;28;20044;-73
2023/10/22 09:36:01;;;;;;;5.88;1.38;;;;;;;;;;5095475;28;20035;-72
2023/10/22 09:38:46;;;;;;;6.82;1.90;;;;;;;;;;5093082;28;20111;-73
2023/10/22 09:41:27;;;;;;;8.88;1.50;;;;;;;;;;5093898;28;20047;-74
2023/10/22 09:43:54;;;;;;;7.93;1.20;;;;;;;;;;5095503;28;20028;-72
2023/10/22 09:46:21;;;;;;;9.75;2.42;;;;;;;;;;5093152;28;20028;-72
2023/10/22 09:48:50;;;;;;;10.43;1.98;;;;;;;;;;5093989;28;20052;-73
2023/10/22 09:51:17;;;;;;;8.25;1.90;;;;;;;;;;5093532;28;20077;-73
2023/10/22 09:53:45;;;;;;;5.75;1.60;;;;;;;;;;5093814;28;20020;-74
2023/10/22 09:56:13;;;;;;;5.10;1.40;;;;;;;;;;5095607;28;20568;-74
2023/10/22 09:58:43;;;;;;;4.15;1.50;;;;;;;;;;5092857;28;20032;-74
2023/10/22 10:01:10;;;;;;;7.60;1.80;;;;;;;;;;5092007;28;20028;-73
2023/10/22 10:03:37;;;;;;;6.65;1.77;;;;;;;;;;5093555;28;20149;-74
2023/10/22 10:06:06;;;;;;;7.60;1.58;;;;;;;;;;5093210;28;20035;-73
2023/10/22 10:08:36;;;;;;;5.47;1.63;;;;;;;;;;5094551;28;20028;-74
2023/10/22 10:11:02;;;;;;;5.35;1.70;;;;;;;;;;5096001;28;20016;-72
2023/10/22 10:13:28;;;;;;;11.35;1.80;;;;;;;;;;5092538;28;20226;-73
2023/10/22 10:16:02;;;;;;;10.60;2.38;;;;;;;;;;5093402;28;20028;-72
2023/10/22 10:18:47;;;;;;;10.98;1.77;;;;;;;;;;5093227;28;20047;-72
2023/10/22 10:21:31;;;;;;;8.05;1.77;;;;;;;;;;5092807;28;20028;-73
2023/10/22 10:24:16;;;;;;;8.18;2.08;;;;;;;;;;5095125;28;20028;-73
2023/10/22 10:26:42;;;;;;;;;;;;;;;;;;5097758;28;20024;-74
2023/10/22 10:29:08;;;;;;;12.48;2.60;;;;;;;;;;5098400;28;20373;-74
2023/10/22 10:31:34;;;;;;;8.90;2.35;;;;;;;;;;5092419;28;20020;-74
2023/10/22 10:34:03;;;;;;;13.10;2.25;;;;;;;;;;5096818;28;20016;-73
2023/10/22 10:36:29;;;;;;;9.27;2.10;;;;;;;;;;5098277;28;20119;-73
2023/10/22 10:39:14;;;;;;;5.95;1.98;;;;;;;;;;5099291;28;20364;-73
2023/10/22 10:41:53;;;;;;;9.52;2.22;;;;;;;;;;5098182;28;20020;-73
2023/10/22 10:44:19;;;;;;;7.03;2.40;;;;;;;;;;5098318;28;20032;-74
2023/10/22 10:46:45;;;;;;;10.25;2.55;;;;;;;;;;5098609;28;20035;-73
2023/10/22 10:49:11;;;;;;;7.22;1.80;;;;;;;;;;5095671;28;20024;-74
2023/10/22 10:51:37;;;;;;;6.40;1.92;;;;;;;;;;5092414;28;20050;-74
2023/10/22 10:54:03;;;;;;;6.25;2.13;;;;;;;;;;5092610;28;20242;-74
2023/10/22 10:56:46;;;;;;;8.13;2.28;;;;;;;;;;5092753;28;20023;-74
2023/10/22 10:59:12;;;;;;;5.13;1.90;;;;;;;;;;5094173;28;20020;-74
2023/10/22 11:01:38;;;;;;;9.57;2.13;;;;;;;;;;5093389;28;20067;-73
2023/10/22 11:04:08;;;;;;;8.73;2.20;;;;;;;;;;5092327;28;20017;-73
2023/10/22 11:06:34;;;;;;;6.07;1.85;;;;;;;;;;5092584;28;20024;-72
2023/10/22 11:09:00;;;;;;;6.53;2.38;;;;;;;;;;5093871;28;20030;-74
2023/10/22 11:11:26;;;;;;;5.88;1.80;;;;;;;;;;5090355;28;20491;-73
2023/10/22 11:13:52;;;;;;;8.73;2.03;;;;;;;;;;5092781;28;20024;-76
2023/10/22 11:16:18;;;;;;;6.03;2.15;;;;;;;;;;5092435;28;20471;-73
2023/10/22 11:19:02;;;;;;;5.10;2.15;;;;;;;;;;5093296;28;20153;-74
2023/10/22 11:21:28;;;;;;;10.15;1.83;;;;;;;;;;5094926;28;20040;-72
2023/10/22 11:23:55;;;;;;;5.45;2.20;;;;;;;;;;5092699;28;20028;-73
2023/10/22 11:26:21;;;;;;;5.47;2.03;;;;;;;;;;5092318;28;20028;-73
2023/10/22 11:28:47;;;;;;;6.10;2.25;;;;;;;;;;5091976;28;20081;-74
2023/10/22 11:31:23;;;;;;;6.30;1.98;;;;;;;;;;5091649;28;20016;-74
2023/10/22 11:33:49;;;;;;;8.98;2.10;;;;;;;;;;5097478;28;20024;-73
2023/10/22 11:36:19;;;;;;;11.95;2.70;;;;;;;;;;5093023;28;20028;-74
2023/10/22 11:38:44;;;;;;;5.95;2.45;;;;;;;;;;5095615;28;20024;-73
2023/10/22 11:41:10;;;;;;;7.72;2.30;;;;;;;;;;5091598;28;20368;-72
2023/10/22 11:43:43;;;;;;;11.65;2.90;;;;;;;;;;5094474;28;20039;-74
2023/10/22 11:46:09;;;;;;;5.63;2.35;;;;;;;;;;5092863;28;20035;-73
2023/10/22 11:48:37;;;;;;;9.88;2.33;;;;;;;;;;5091720;28;20073;-74
2023/10/22 11:51:05;;;;;;;8.93;2.40;;;;;;;;;;5091419;28;20023;-74
2023/10/22 11:53:40;;;;;;;6.60;2.53;;;;;;;;;;5091383;28;20111;-74
2023/10/22 11:56:06;;;;;;;8.68;2.28;;;;;;;;;;5091415;28;20368;-73
2023/10/22 11:58:32;;;;;;;8.75;2.70;;;;;;;;;;5091110;28;20096;-74
2023/10/22 12:00:58;;;;;;;8.90;2.47;;;;;;;;;;5091121;28;20064;-73
2023/10/22 12:03:24;;;;;;;7.30;2.55;;;;;;;;;;5092111;28;20028;-74
2023/10/22 12:05:50;;;;;;;8.40;2.45;;;;;;;;;;5097656;28;20502;-74
2023/10/22 12:08:16;;;;;;;9.95;2.65;;;;;;;;;;5097979;28;20016;-75
2023/10/22 12:10:42;;;;;;;7.80;2.58;;;;;;;;;;5096585;28;20020;-73
2023/10/22 12:13:10;;;;;;;6.15;2.50;;;;;;;;;;5095677;28;20024;-74
2023/10/22 12:15:36;;;;;;;10.65;2.47;;;;;;;;;;5094476;28;20024;-73
2023/10/22 12:18:02;;;;;;;7.82;2.17;;;;;;;;;;5094867;28;20035;-73
2023/10/22 12:20:28;;;;;;;7.07;2.15;;;;;;;;;;5098342;28;20028;-74
2023/10/22 12:22:54;;;;;;;10.00;3.22;;;;;;;;;;5097693;28;20034;-72
2023/10/22 12:25:20;;;;;;;8.23;2.70;;;;;;;;;;5095208;28;20046;-73
2023/10/22 12:27:46;;;;;;;11.23;3.25;;;;;;;;;;5093730;28;20104;-72
2023/10/22 12:30:12;;;;;;;7.15;2.40;;;;;;;;;;5093578;28;20024;-72
2023/10/22 12:32:38;;;;;;;6.82;2.50;;;;;;;;;;5094965;28;20031;-72
2023/10/22 12:35:07;;;;;;;11.70;2.55;;;;;;;;;;5094916;28;20027;-72
2023/10/22 12:37:33;;;;;;;8.32;2.42;;;;;;;;;;5095379;28;20372;-74
2023/10/22 12:39:59;;;;;;;9.52;2.10;;;;;;;;;;5095392;28;20053;-73
2023/10/22 12:42:25;;;;;;;10.15;2.70;;;;;;;;;;5095091;28;20035;-73
2023/10/22 12:44:51;;;;;;;9.13;2.80;;;;;;;;;;5094770;28;20028;-73
2023/10/22 12:47:17;;;;;;;7.15;2.47;;;;;;;;;;5094818;28;20498;-74
2023/10/22 12:49:44;;;;;;;7.10;2.28;;;;;;;;;;5094684;28;20016;-73
2023/10/22 12:52:10;;;;;;;6.65;2.15;;;;;;;;;;5094681;28;20078;-74
2023/10/22 12:54:38;;;;;;;10.45;2.70;;;;;;;;;;5095017;28;20028;-74
2023/10/22 12:57:04;;;;;;;14.02;2.85;;;;;;;;;;5094735;28;20054;-73
2023/10/22 12:59:30;;;;;;;9.52;2.22;;;;;;;;;;5094800;28;20024;-73
2023/10/22 13:01:56;;;;;;;6.13;1.90;;;;;;;;;;5094519;28;20034;-72
2023/10/22 13:04:22;;;;;;;6.53;1.73;;;;;;;;;;5094951;28;20031;-74
2023/10/22 13:06:48;;;;;;;8.02;2.25;;;;;;;;;;5094604;28;20536;-73
2023/10/22 13:09:17;;;;;;;4.63;1.95;;;;;;;;;;5095665;28;20024;-73
2023/10/22 13:11:43;;;;;;;10.68;2.03;;;;;;;;;;5095429;28;20020;-73
2023/10/22 13:14:09;;;;;;;8.88;1.90;;;;;;;;;;5097045;28;20347;-74
2023/10/22 13:16:35;;;;;;;9.23;2.13;;;;;;;;;;5096261;28;20028;-73
2023/10/22 13:19:02;;;;;;;7.35;1.95;;;;;;;;;;5097535;28;20032;-74
2023/10/22 13:21:28;;;;;;;4.47;1.77;;;;;;;;;;5094565;28;20023;-73
2023/10/22 13:23:54;;;;;;;5.55;1.95;;;;;;;;;;5094285;28;20024;-73
2023/10/22 13:26:20;;;;;;;7.70;2.10;;;;;;;;;;5094285;28;20549;-74
2023/10/22 13:28:46;;;;;;;5.90;1.85;;;;;;;;;;5094057;28;20051;-73
2023/10/22 13:31:14;;;;;;;7.20;1.60;;;;;;;;;;5093975;28;20483;-74
2023/10/22 13:33:40;;;;;;;7.68;3.70;;;;;;;;;;5093557;28;20023;-74
2023/10/22 13:36:06;;;;;;;9.07;2.97;;;;;;;;;;5094179;28;20213;-72
2023/10/22 13:38:32;;;;;;;10.35;2.72;;;;;;;;;;5094508;28;20464;-73
2023/10/22 13:41:01;;;;;;;8.43;2.42;;;;;;;;;;5093559;28;20062;-73
2023/10/22 13:43:27;;;;;;;9.18;3.22;;;;;;;;;;5093651;28;20032;-73
2023/10/22 13:45:53;;;;;;;8.18;2.50;;;;;;;;;;5093549;28;20025;-72
2023/10/22 13:48:19;;;;;;;10.77;2.53;;;;;;;;;;5093941;28;20544;-73
2023/10/22 13:50:45;;;;;;;10.02;3.60;;;;;;;;;;5093734;28;20065;-72
2023/10/22 13:53:13;;;;;;;10.23;2.65;;;;;;;;;;5093592;28;20024;-74
2023/10/22 13:55:39;;;;;;;5.93;2.30;;;;;;;;;;5093658;28;20027;-73
2023/10/22 13:58:05;;;;;;;5.57;2.33;;;;;;;;;;5094060;28;20514;-74
2023/10/22 14:00:31;;;;;;;7.30;2.20;;;;;;;;;;5093363;28;20109;-73
2023/10/22 14:02:57;;;;;;;10.05;2.67;;;;;;;;;;5093370;28;20028;-73
2023/10/22 14:05:23;;;;;;;8.30;2.83;;;;;;;;;;5093472;28;20464;-74
2023/10/22 14:07:49;;;;;;;11.48;2.63;;;;;;;;;;5093518;28;20024;-73
2023/10/22 14:10:15;;;;;;;9.60;2.20;;;;;;;;;;5093109;28;20017;-74
2023/10/22 14:12:41;;;;;;;6.85;2.03;;;;;;;;;;5092058;28;20028;-73
2023/10/22 14:15:08;;;;;;;6.68;1.85;;;;;;;;;;5093628;28;20109;-73
2023/10/22 14:17:34;;;;;;;11.48;1.75;;;;;;;;;;5093153;28;20028;-72
2023/10/22 14:20:00;;;;;;;7.47;1.60;;;;;;;;;;5093318;28;20391;-73
2023/10/22 14:22:26;;;;;;;4.53;1.40;;;;;;;;;;5093101;28;20429;-73
2023/10/22 14:24:54;;;;;;;3.92;1.42;;;;;;;;;;5092712;28;20085;-73
2023/10/22 14:27:20;;;;;;;5.07;1.70;;;;;;;;;;5092244;28;20017;-73
2023/10/22 14:29:46;;;;;;;4.15;1.33;;;;;;;;;;5099237;28;20070;-73
2023/10/22 14:32:12;;;;;;;5.82;1.50;;;;;;;;;;5099662;28;20027;-72
2023/10/22 14:34:38;;;;;;;11.70;1.90;;;;;;;;;;5102261;28;20399;-74